Time;durP1;ratioP1;P1;durP2;ratioP2;P2;SDS_P1;SDS_P2;PMS_P1;PMS_P2;Temp;Humidity;BMP_temperature;BMP_pressure;BME280_temperature;BME280_humidity;BME280_pressure;Samples;Min_cycle;Max_cycle;Signal;HPM_P1;HPM_P2
2024/01/02 00:01:19;;;;;;;6.83;4.37;;;5.30;99.90;;;6.12;84.76;97364.66;10493282;28;20283;-64
2024/01/02 00:06:22;;;;;;;6.57;4.80;;;5.40;99.90;;;6.27;84.59;97351.31;10494846;28;20227;-65
2024/01/02 00:11:26;;;;;;;9.87;6.43;;;5.50;99.90;;;6.15;85.42;97345.44;10506766;28;20314;-64
2024/01/02 00:16:30;;;;;;;13.17;8.13;;;5.40;99.90;;;6.17;85.03;97336.28;10489408;28;20240;-65
2024/01/02 00:21:33;;;;;;;15.07;10.00;;;5.40;99.90;;;6.17;84.60;97321.03;10486559;28;20228;-65
2024/01/02 00:26:37;;;;;;;15.20;9.50;;;5.50;99.90;;;6.26;83.43;97306.41;10421219;28;20276;-65
2024/01/02 00:31:44;;;;;;;13.27;7.47;;;5.60;99.90;;;6.31;82.91;97297.44;10418968;28;20269;-64
2024/01/02 00:36:47;;;;;;;9.37;5.23;;;5.60;99.90;;;6.28;83.68;97287.09;10406858;28;20312;-64
2024/01/02 00:41:50;;;;;;;6.37;3.97;;;5.60;99.90;;;6.22;83.45;97286.72;10484195;28;20235;-64
2024/01/02 00:46:55;;;;;;;3.10;2.50;;;5.60;99.90;;;6.31;83.46;97278.81;10483540;28;20684;-64
2024/01/02 00:51:58;;;;;;;3.53;2.20;;;5.60;99.90;;;6.35;83.16;97279.88;10482345;28;20690;-65
2024/01/02 00:57:01;;;;;;;5.83;3.00;;;5.70;99.90;;;6.45;84.35;97274.59;10497414;28;20719;-65
2024/01/02 01:02:06;;;;;;;4.90;3.40;;;5.70;99.90;;;6.45;85.19;97259.38;10490383;28;20231;-64
2024/01/02 01:07:09;;;;;;;5.30;3.60;;;5.60;99.90;;;6.37;85.93;97247.84;10488108;28;20254;-64
2024/01/02 01:12:12;;;;;;;4.83;2.70;;;5.60;99.90;;;6.28;87.12;97256.66;10494471;28;20238;-64
2024/01/02 01:17:18;;;;;;;7.30;3.13;;;5.50;99.90;;;6.20;88.29;97245.13;10443193;28;20683;-64
2024/01/02 01:22:21;;;;;;;2.83;2.50;;;5.50;99.90;;;6.21;88.32;97236.75;10477361;28;20242;-64
2024/01/02 01:27:24;;;;;;;2.10;1.90;;;5.50;99.90;;;6.31;85.12;97222.97;10498528;28;20219;-64
2024/01/02 01:32:29;;;;;;;2.67;2.10;;;5.60;99.90;;;6.41;86.42;97216.78;10461846;28;20228;-64
2024/01/02 01:37:32;;;;;;;5.40;2.60;;;5.70;99.90;;;6.44;87.45;97215.34;10494523;28;20231;-67
2024/01/02 01:42:36;;;;;;;4.70;2.87;;;5.60;99.90;;;6.26;88.90;97216.72;10462104;28;20322;-64
2024/01/02 01:47:41;;;;;;;4.27;3.00;;;5.40;99.90;;;6.19;90.04;97205.31;10457268;28;20727;-66
2024/01/02 01:52:45;;;;;;;4.47;2.77;;;5.40;99.90;;;6.17;90.12;97200.94;10425272;28;20220;-64
2024/01/02 01:57:48;;;;;;;3.67;3.37;;;5.40;99.90;;;6.11;90.49;97195.47;10413844;28;20237;-64
2024/01/02 02:02:53;;;;;;;4.03;3.30;;;5.40;99.90;;;6.01;90.51;97194.91;10463267;28;20316;-64
2024/01/02 02:07:56;;;;;;;2.37;2.13;;;5.30;99.90;;;6.08;88.97;97183.47;10456778;28;20237;-65
2024/01/02 02:13:00;;;;;;;2.40;2.10;;;5.40;99.90;;;6.17;88.57;97165.41;10415180;28;20271;-66
2024/01/02 02:18:04;;;;;;;2.50;2.00;;;5.50;99.90;;;6.30;86.30;97158.66;10420142;28;20260;-66
2024/01/02 02:23:09;;;;;;;2.37;2.17;;;5.70;99.90;;;6.55;84.36;97142.38;10428481;28;20221;-64
2024/01/02 02:28:13;;;;;;;2.17;1.87;;;5.90;99.90;;;6.68;84.13;97132.19;10509905;28;20802;-66
2024/01/02 02:33:16;;;;;;;3.73;2.07;;;6.00;99.90;;;6.73;84.17;97125.72;10497231;28;20260;-65
2024/01/02 02:38:20;;;;;;;2.23;2.03;;;6.10;99.90;;;6.69;84.05;97118.69;10432131;28;20231;-66
2024/01/02 02:43:24;;;;;;;2.93;1.87;;;6.10;99.90;;;6.77;83.42;97122.56;10492264;28;20655;-65
2024/01/02 02:48:28;;;;;;;3.10;1.80;;;6.10;99.90;;;6.72;84.99;97102.75;10413417;28;20946;-67
2024/01/02 02:53:33;;;;;;;4.20;2.30;;;6.10;99.90;;;6.98;82.88;97083.97;10444294;28;20252;-64
2024/01/02 02:58:36;;;;;;;2.10;2.00;;;6.30;99.90;;;7.04;83.13;97074.19;10490375;28;20743;-64
2024/01/02 03:03:39;;;;;;;2.17;2.00;;;6.30;99.90;;;7.19;82.76;97074.19;10432003;28;20636;-63
2024/01/02 03:08:43;;;;;;;2.20;2.10;;;6.40;99.90;;;7.16;83.00;97063.84;10431507;28;20241;-66
2024/01/02 03:13:47;;;;;;;4.33;3.10;;;6.40;99.90;;;7.31;82.71;97044.38;10449250;28;20231;-65
2024/01/02 03:18:50;;;;;;;3.27;1.90;;;6.50;99.90;;;7.37;82.24;97036.22;10424458;28;20317;-62
2024/01/02 03:23:55;;;;;;;2.03;1.80;;;6.60;99.90;;;7.47;82.01;97028.31;10429080;28;20222;-63
2024/01/02 03:28:58;;;;;;;2.43;1.67;;;6.70;99.90;;;7.36;81.43;97009.06;10467509;28;20233;-65
2024/01/02 03:34:02;;;;;;;1.97;1.87;;;6.60;99.90;;;7.49;80.75;96991.13;10458735;28;20266;-65
2024/01/02 03:39:07;;;;;;;2.33;2.13;;;6.80;99.90;;;7.78;77.94;96971.47;10457429;28;20225;-64
2024/01/02 03:44:10;;;;;;;2.73;1.70;;;7.10;99.90;;;7.85;77.15;96958.31;10424807;28;20293;-65
2024/01/02 03:49:14;;;;;;;2.30;2.10;;;7.30;99.90;;;7.76;78.69;96940.03;10478356;28;20237;-64
2024/01/02 03:54:18;;;;;;;2.20;2.00;;;7.20;99.90;;;7.75;79.38;96938.25;10478071;28;20625;-65
2024/01/02 03:59:22;;;;;;;1.90;1.80;;;7.10;99.90;;;7.83;78.98;96921.72;10489692;28;20287;-65
2024/01/02 04:04:25;;;;;;;1.93;1.83;;;7.20;99.90;;;7.80;78.69;96919.91;10486092;28;20223;-64
2024/01/02 04:09:29;;;;;;;2.63;1.67;;;7.10;99.90;;;7.85;79.85;96900.66;10472069;28;20319;-65
2024/01/02 04:14:32;;;;;;;2.33;1.77;;;7.20;99.90;;;7.56;82.00;96883.03;10494421;28;20651;-66
2024/01/02 04:19:36;;;;;;;2.67;1.73;;;6.90;99.90;;;7.56;82.17;96881.34;10491162;28;20252;-65
2024/01/02 04:24:40;;;;;;;2.93;1.77;;;6.90;99.90;;;7.51;82.13;96867.50;10505722;28;20243;-64
2024/01/02 04:29:43;;;;;;;2.50;1.90;;;6.90;99.90;;;7.54;82.75;96861.72;10504182;28;20663;-66
2024/01/02 04:34:46;;;;;;;1.77;1.67;;;6.90;99.90;;;7.45;84.00;96857.03;10486802;28;20733;-63
2024/01/02 04:39:51;;;;;;;1.90;1.80;;;6.80;99.90;;;7.54;83.82;96836.28;10412129;28;20229;-64
2024/01/02 04:44:54;;;;;;;2.17;1.73;;;6.80;99.90;;;7.55;84.16;96832.94;10418788;28;20285;-64
2024/01/02 04:49:57;;;;;;;2.00;1.80;;;6.80;99.90;;;7.45;86.63;96829.06;10433959;28;20244;-64
2024/01/02 04:55:02;;;;;;;2.00;1.70;;;6.80;99.90;;;7.61;85.44;96830.72;10491778;28;20224;-65
2024/01/02 05:00:07;;;;;;;1.90;1.80;;;6.90;99.90;;;7.43;87.11;96813.72;10489122;28;20715;-64
2024/01/02 05:05:10;;;;;;;1.90;1.67;;;6.90;99.90;;;7.61;87.85;96796.00;10474989;28;20236;-65
2024/01/02 05:10:15;;;;;;;1.70;1.43;;;7.00;99.90;;;7.44;89.78;96801.91;10471375;28;20224;-64
2024/01/02 05:15:19;;;;;;;2.60;1.83;;;6.80;99.90;;;7.26;91.44;96788.22;10489515;28;20792;-64
2024/01/02 05:20:22;;;;;;;1.77;1.67;;;6.70;99.90;;;7.28;91.17;96786.66;10495964;28;20227;-65
2024/01/02 05:25:27;;;;;;;2.27;2.03;;;6.70;99.90;;;6.90;95.84;96778.75;10455868;28;20219;-64
2024/01/02 05:30:30;;;;;;;1.83;1.70;;;6.50;99.90;;;7.11;94.64;96761.22;10454226;28;20299;-65
2024/01/02 05:35:33;;;;;;;1.67;1.57;;;6.60;99.90;;;7.00;96.13;96768.25;10441894;28;20233;-65
2024/01/02 05:40:38;;;;;;;2.00;1.60;;;6.50;99.90;;;7.13;96.32;96757.09;10482855;28;20232;-66
2024/01/02 05:45:41;;;;;;;1.90;1.77;;;6.60;99.90;;;7.02;96.82;96750.56;10465560;28;20244;-64
2024/01/02 05:50:44;;;;;;;1.80;1.60;;;6.60;99.90;;;6.79;99.82;96743.41;10409253;28;20232;-64
2024/01/02 05:55:49;;;;;;;2.23;2.00;;;6.40;99.90;;;6.88;99.90;96736.28;10479019;28;20220;-67
2024/01/02 06:00:52;;;;;;;3.00;2.17;;;6.40;99.90;;;6.83;100.00;96741.09;10430654;28;20480;-64
2024/01/02 06:05:55;;;;;;;2.03;1.90;;;6.40;99.90;;;6.72;100.00;96717.69;10430210;28;20315;-64
2024/01/02 06:11:00;;;;;;;2.30;2.00;;;6.30;99.90;;;6.75;100.00;96711.88;10420109;28;20238;-64
2024/01/02 06:16:03;;;;;;;2.10;1.93;;;6.20;99.90;;;6.66;100.00;96709.72;10423422;28;20346;-65
2024/01/02 06:21:07;;;;;;;1.77;1.67;;;6.20;99.90;;;6.76;100.00;96691.66;10500081;28;20227;-64
2024/01/02 06:26:12;;;;;;;2.33;2.20;;;6.20;99.90;;;6.68;100.00;96705.63;10496387;28;20223;-66
2024/01/02 06:31:15;;;;;;;2.07;1.97;;;6.10;99.90;;;6.48;100.00;96691.88;10493877;28;20220;-65
2024/01/02 06:36:18;;;;;;;2.03;1.87;;;6.00;99.90;;;6.34;100.00;96689.38;10485887;28;20272;-64
2024/01/02 06:41:23;;;;;;;2.20;2.00;;;5.90;99.90;;;6.48;100.00;96686.78;10438482;28;20220;-65
2024/01/02 06:46:26;;;;;;;2.00;1.90;;;6.00;99.90;;;6.43;100.00;96669.56;10418770;28;20232;-65
2024/01/02 06:51:29;;;;;;;1.90;1.80;;;5.90;99.90;;;6.37;100.00;96666.69;10443144;28;20236;-66
2024/01/02 06:56:34;;;;;;;2.03;1.87;;;5.90;99.90;;;6.37;100.00;96666.69;10493116;28;20233;-66
2024/01/02 07:01:37;;;;;;;2.40;1.70;;;5.90;99.90;;;6.33;100.00;96663.13;10416785;28;20695;-66
2024/01/02 07:06:40;;;;;;;1.40;1.40;;;5.90;99.90;;;6.45;100.00;96657.84;10410551;28;20312;-67
2024/01/02 07:11:45;;;;;;;2.10;2.00;;;6.00;99.90;;;6.35;100.00;96653.06;10477255;28;20257;-67
2024/01/02 07:16:48;;;;;;;2.40;2.20;;;5.90;99.90;;;6.34;100.00;96644.56;10483127;28;20909;-66
2024/01/02 07:21:52;;;;;;;1.90;1.80;;;5.90;99.90;;;6.38;100.00;96640.53;10428474;28;20226;-66
2024/01/02 07:26:56;;;;;;;2.07;1.97;;;6.00;99.90;;;6.34;100.00;96647.09;10455058;28;20797;-67
2024/01/02 07:31:59;;;;;;;2.20;1.80;;;5.90;99.90;;;6.38;100.00;96653.22;10415702;28;20229;-66
2024/01/02 07:37:03;;;;;;;1.70;1.60;;;5.90;99.90;;;6.41;100.00;96645.75;10449503;28;20624;-66
2024/01/02 07:42:08;;;;;;;2.20;2.10;;;6.00;99.90;;;6.45;100.00;96637.53;10481444;28;20609;-66
2024/01/02 07:47:12;;;;;;;3.97;3.17;;;6.00;99.90;;;6.44;100.00;96638.31;10486677;28;20220;-67
2024/01/02 07:52:15;;;;;;;2.00;1.90;;;6.00;99.90;;;6.52;100.00;96637.06;10484772;28;20318;-66
2024/01/02 07:57:20;;;;;;;1.93;1.83;;;6.00;99.90;;;6.40;100.00;96628.81;10491166;28;20228;-66
2024/01/02 08:02:24;;;;;;;2.30;2.10;;;6.00;99.90;;;6.30;100.00;96637.59;10489497;28;20246;-67
2024/01/02 08:07:27;;;;;;;2.00;1.90;;;6.00;99.90;;;6.40;100.00;96637.28;10461199;28;20704;-65
2024/01/02 08:12:33;;;;;;;1.90;1.80;;;5.90;99.90;;;6.32;100.00;96641.06;10448331;28;20335;-65
2024/01/02 08:17:36;;;;;;;2.30;1.90;;;6.00;99.90;;;6.40;100.00;96649.09;10454395;28;20437;-67
2024/01/02 08:22:39;;;;;;;2.47;2.07;;;6.00;99.90;;;6.57;100.00;96638.16;10449480;28;20220;-66
2024/01/02 08:27:44;;;;;;;3.50;3.20;;;6.10;99.90;;;6.70;100.00;96645.66;10410928;28;20643;-66
2024/01/02 08:32:47;;;;;;;5.50;5.00;;;6.30;99.90;;;6.98;100.00;96647.03;10406613;28;20765;-67
2024/01/02 08:37:51;;;;;;;3.33;3.07;;;6.50;99.90;;;6.83;100.00;96664.06;10407700;28;20488;-67
2024/01/02 08:42:56;;;;;;;2.50;2.30;;;6.40;99.90;;;6.93;100.00;96641.75;10427019;28;20782;-67
2024/01/02 08:47:59;;;;;;;2.00;1.90;;;6.50;99.90;;;7.12;100.00;96663.88;10478508;28;20738;-66
2024/01/02 08:53:03;;;;;;;3.37;3.10;;;6.60;99.90;;;7.22;100.00;96652.50;10435326;28;20239;-66
2024/01/02 08:58:08;;;;;;;4.50;4.20;;;6.70;99.90;;;7.31;100.00;96655.50;10473768;28;20245;-66
2024/01/02 09:03:12;;;;;;;4.87;4.47;;;6.70;99.90;;;7.20;100.00;96646.47;10438645;28;20307;-66
2024/01/02 09:08:15;;;;;;;2.00;1.90;;;6.70;99.90;;;7.19;100.00;96650.69;10440786;28;20232;-66
2024/01/02 09:13:20;;;;;;;1.60;1.60;;;6.80;99.90;;;7.28;100.00;96642.66;10488655;28;20225;-66
2024/01/02 09:18:23;;;;;;;1.10;1.10;;;6.80;99.90;;;7.43;100.00;96650.16;10442755;28;20275;-66
2024/01/02 09:23:27;;;;;;;2.27;2.17;;;7.00;99.90;;;7.57;100.00;96661.88;10407419;28;20230;-65
2024/01/02 09:28:35;;;;;;;2.10;2.00;;;7.00;99.90;;;7.58;100.00;96660.19;10449679;28;20718;-66
2024/01/02 09:33:38;;;;;;;1.80;1.70;;;7.10;99.90;;;7.65;100.00;96668.22;10488234;28;20223;-66
2024/01/02 09:38:42;;;;;;;1.53;1.53;;;7.20;99.90;;;7.67;100.00;96665.75;10462439;28;20239;-67
2024/01/02 09:44:04;;;;;;;1.83;1.73;;;7.20;99.90;;;7.79;100.00;96675.66;10429850;28;20222;-68
2024/01/02 09:49:27;;;;;;;1.70;1.60;;;7.30;99.90;;;7.83;100.00;96667.34;10443717;28;20340;-65
2024/01/02 09:54:46;;;;;;;1.70;1.60;;;7.30;99.90;;;7.93;100.00;96667.00;10412998;28;20719;-66
2024/01/02 10:00:05;;;;;;;2.20;2.10;;;7.40;99.90;;;7.91;100.00;96676.22;10416881;28;20228;-67
2024/01/02 10:05:18;;;;;;;1.30;1.30;;;7.40;99.90;;;8.09;100.00;96661.81;10461193;28;20722;-68
2024/01/02 10:10:34;;;;;;;1.20;1.20;;;7.50;99.90;;;8.18;100.00;96665.59;10457001;28;20710;-67
2024/01/02 10:15:49;;;;;;;1.60;1.50;;;7.60;99.90;;;8.15;100.00;96670.56;10420292;28;20768;-67
2024/01/02 10:21:00;;;;;;;1.20;1.20;;;7.60;99.90;;;8.12;100.00;96661.97;10458300;28;20319;-67
2024/01/02 10:26:06;;;;;;;1.80;1.70;;;7.60;99.90;;;8.15;100.00;96655.28;10472896;28;20221;-67
2024/01/02 10:31:25;;;;;;;1.50;1.50;;;7.60;99.90;;;8.20;100.00;96653.84;10466710;28;20228;-66
2024/01/02 10:36:30;;;;;;;1.23;1.23;;;7.60;99.90;;;8.25;100.00;96639.66;10491305;28;20255;-67
2024/01/02 10:41:53;;;;;;;1.57;1.50;;;7.60;99.90;;;8.35;100.00;96645.25;10438762;28;20346;-66
2024/01/02 10:47:07;;;;;;;2.10;1.73;;;7.80;99.90;;;8.39;100.00;96631.00;10429828;28;20228;-67
2024/01/02 10:52:18;;;;;;;1.90;1.80;;;7.90;99.90;;;8.46;100.00;96629.59;10429871;28;20725;-68
2024/01/02 10:57:34;;;;;;;2.13;1.93;;;7.90;99.90;;;8.61;100.00;96611.56;10443626;28;20232;-67
2024/01/02 11:02:51;;;;;;;1.90;1.80;;;7.90;99.90;;;8.66;100.00;96600.78;10419111;28;20229;-66
2024/01/02 11:08:02;;;;;;;2.03;1.57;;;8.10;99.90;;;8.61;100.00;96596.28;10440187;28;20223;-66
2024/01/02 11:13:09;;;;;;;1.40;1.30;;;8.10;99.90;;;8.79;100.00;96589.47;10491503;28;20263;-66
2024/01/02 11:18:21;;;;;;;1.57;1.47;;;8.10;99.90;;;8.72;100.00;96578.13;10492152;28;20323;-67
2024/01/02 11:23:28;;;;;;;1.23;1.23;;;8.20;99.90;;;8.83;100.00;96568.41;10413396;28;20221;-67
2024/01/02 11:28:31;;;;;;;1.37;1.37;;;8.20;99.90;;;8.91;100.00;96556.88;10424999;28;20301;-69
2024/01/02 11:33:43;;;;;;;1.53;1.53;;;8.30;99.90;;;9.11;100.00;96554.28;10489227;28;20228;-67
2024/01/02 11:39:03;;;;;;;1.33;1.33;;;8.70;99.90;;;9.22;100.00;96537.75;10485122;28;20228;-67
2024/01/02 11:44:21;;;;;;;1.20;1.20;;;8.70;99.90;;;9.20;100.00;96534.25;10488317;28;20369;-67
2024/01/02 11:49:28;;;;;;;2.20;1.17;;;8.90;99.90;;;9.27;100.00;96520.06;10436096;28;20644;-66
2024/01/02 11:54:43;;;;;;;1.37;1.37;;;9.00;99.90;;;9.44;100.00;96502.09;10411997;28;20233;-66
2024/01/02 11:59:57;;;;;;;1.27;1.27;;;9.10;99.90;;;9.47;100.00;96498.78;10448048;28;20233;-67
2024/01/02 12:05:11;;;;;;;1.80;1.70;;;9.10;99.90;;;9.62;100.00;96488.31;10488630;28;20220;-68
2024/01/02 12:10:15;;;;;;;1.63;1.53;;;9.20;99.90;;;9.58;100.00;96472.00;10455825;28;20779;-67
2024/01/02 12:15:25;;;;;;;1.70;1.70;;;9.30;99.90;;;9.68;100.00;96466.47;10420135;28;20316;-68
2024/01/02 12:20:38;;;;;;;1.40;1.40;;;9.30;99.90;;;9.70;100.00;96457.19;10420098;28;20246;-66
2024/01/02 12:25:44;;;;;;;1.60;1.50;;;9.50;99.90;;;9.77;100.00;96454.88;10486832;28;20224;-67
2024/01/02 12:30:57;;;;;;;9.03;6.93;;;9.60;99.90;;;9.73;98.93;96448.78;10477842;28;20232;-66
2024/01/02 12:36:20;;;;;;;5.13;4.63;;;9.60;99.90;;;9.77;100.00;96442.97;10441990;28;20566;-67
2024/01/02 12:41:27;;;;;;;14.85;11.65;;;9.50;99.90;;;9.77;98.63;96417.44;10425391;28;21987;-66
2024/01/02 12:46:39;;;;;;;2.55;2.35;;;9.60;99.90;;;9.72;98.18;96434.25;10409880;28;20224;-67
2024/01/02 12:51:46;;;;;;;1.73;1.63;;;9.60;99.90;;;9.85;96.75;96425.41;10470221;28;20232;-67
2024/01/02 12:56:56;;;;;;;6.43;5.85;;;9.70;99.90;;;9.88;96.06;96400.84;10468314;28;20305;-68
2024/01/02 13:02:04;;;;;;;1.42;1.35;;;9.70;99.90;;;9.93;95.89;96394.22;10406884;28;20233;-68
2024/01/02 13:07:11;;;;;;;2.45;2.25;;;9.80;99.90;;;10.01;93.98;96391.06;10481263;28;20618;-68
2024/01/02 13:12:17;;;;;;;1.30;1.30;;;9.80;99.90;;;10.02;93.56;96374.97;10412694;28;20580;-70
2024/01/02 13:17:20;;;;;;;1.60;1.50;;;9.90;99.90;;;10.05;93.66;96377.63;10453768;28;20226;-66
2024/01/02 13:22:26;;;;;;;2.00;1.90;;;9.80;99.90;;;10.07;92.62;96336.00;10480329;28;20316;-67
2024/01/02 13:27:30;;;;;;;2.20;2.10;;;9.90;99.90;;;10.06;93.81;96344.47;10480759;28;20238;-68
2024/01/02 13:32:35;;;;;;;2.70;2.60;;;9.90;99.90;;;10.20;91.69;96347.50;10447327;28;20229;-68
2024/01/02 13:37:40;;;;;;;1.33;1.33;;;10.00;99.90;;;10.27;91.71;96349.50;10445391;28;20720;-66
2024/01/02 13:42:43;;;;;;;2.65;1.55;;;10.10;99.90;;;10.36;91.72;96351.47;10404730;28;20775;-67
2024/01/02 13:47:47;;;;;;;1.17;1.17;;;10.00;99.90;;;10.33;91.00;96357.34;10427648;28;20217;-67
2024/01/02 13:53:02;;;;;;;1.58;1.58;;;10.00;99.90;;;10.45;90.23;96359.44;10473689;28;20214;-67
2024/01/02 13:58:11;;;;;;;1.80;1.70;;;10.00;99.90;;;10.47;88.85;96346.69;10413076;28;20622;-68
2024/01/02 14:03:18;;;;;;;1.90;1.90;;;10.10;99.90;;;10.49;89.56;96345.06;10408024;28;20312;-67
2024/01/02 14:08:25;;;;;;;1.33;1.25;;;10.10;99.90;;;10.47;89.71;96346.69;10410019;28;20698;-67
2024/01/02 14:13:31;;;;;;;1.30;1.30;;;10.10;99.90;;;10.40;89.75;96349.88;10412673;28;20278;-69
2024/01/02 14:18:41;;;;;;;1.40;1.40;;;10.20;99.90;;;10.41;90.04;96346.50;10450409;28;20235;-67
2024/01/02 14:23:54;;;;;;;3.20;3.00;;;10.10;99.90;;;10.49;88.06;96345.94;10496333;28;20227;-67
2024/01/02 14:29:00;;;;;;;1.25;1.25;;;10.20;99.90;;;10.50;88.76;96331.47;10418076;28;20288;-68
2024/01/02 14:34:22;;;;;;;1.73;1.63;;;10.20;99.90;;;10.43;89.43;96342.31;10452878;28;20231;-67
2024/01/02 14:40:01;;;;;;;0.90;0.90;;;10.10;99.90;;;10.36;90.20;96352.34;10492135;28;20227;-67
2024/01/02 14:45:10;;;;;;;1.50;1.40;;;10.20;99.90;;;10.41;90.75;96346.50;10465730;28;20233;-68
2024/01/02 14:50:21;;;;;;;1.40;1.40;;;10.00;99.90;;;10.36;91.78;96344.69;10419740;28;20375;-68
2024/01/02 14:55:34;;;;;;;1.17;1.17;;;9.90;99.90;;;10.24;93.87;96358.66;10460815;28;20756;-68
2024/01/02 15:00:39;;;;;;;2.08;1.50;;;9.90;99.90;;;10.17;95.49;96354.19;10446344;28;20767;-67
2024/01/02 15:05:48;;;;;;;1.33;1.33;;;9.90;99.90;;;10.04;96.76;96360.53;10428011;28;20224;-68
2024/01/02 15:11:11;;;;;;;1.38;1.38;;;9.70;99.90;;;9.90;97.26;96357.50;10419871;28;20780;-66
2024/01/02 15:16:30;;;;;;;1.58;1.52;;;9.70;99.90;;;9.91;97.85;96360.13;10414653;28;20629;-67
2024/01/02 15:21:43;;;;;;;1.40;1.40;;;9.60;99.90;;;9.82;99.24;96348.75;10427472;28;22286;-67
2024/01/02 15:26:55;;;;;;;1.30;1.30;;;9.70;99.90;;;9.75;99.73;96359.53;10483176;28;20221;-67
2024/01/02 15:32:04;;;;;;;1.25;1.20;;;9.40;99.90;;;9.72;99.95;96355.19;10478025;28;20856;-67
2024/01/02 15:37:21;;;;;;;1.10;1.10;;;9.40;99.90;;;9.73;100.00;96356.94;10481407;28;20220;-68
2024/01/02 15:42:34;;;;;;;1.37;1.37;;;9.40;99.90;;;9.78;99.99;96346.88;10484570;28;20224;-68
2024/01/02 15:47:42;;;;;;;1.90;1.80;;;9.50;99.90;;;9.76;99.48;96339.19;10480651;28;20650;-67
2024/01/02 15:52:49;;;;;;;1.43;1.40;;;9.50;99.90;;;9.76;98.99;96339.19;10478987;28;20228;-67
2024/01/02 15:57:56;;;;;;;1.43;1.43;;;9.50;99.90;;;9.92;97.59;96335.47;10418657;28;20229;-67
2024/01/02 16:03:45;;;;;;;1.40;1.40;;;9.70;99.90;;;9.82;97.90;96318.97;10402175;28;20229;-66
2024/01/02 16:09:10;;;;;;;1.80;1.70;;;9.50;99.90;;;10.01;97.33;96312.81;10408456;28;20232;-66
2024/01/02 16:14:50;;;;;;;2.03;1.92;;;9.60;99.90;;;9.99;95.98;96306.81;10442363;28;20223;-67
2024/01/02 16:20:33;;;;;;;2.53;2.42;;;9.80;99.90;;;9.90;96.91;96286.94;10478405;28;20268;-66
2024/01/02 16:26:14;;;;;;;1.70;1.70;;;9.70;99.90;;;10.09;94.66;96279.88;10484150;28;20433;-65
2024/01/02 16:31:34;;;;;;;1.52;1.42;;;9.80;99.90;;;10.08;94.42;96281.56;10468566;28;20279;-66
2024/01/02 16:36:52;;;;;;;1.20;1.20;;;9.70;99.90;;;10.17;94.39;96286.13;10447074;28;20225;-66
2024/01/02 16:41:56;;;;;;;1.20;1.20;;;9.90;99.90;;;10.18;93.92;96271.66;10487455;28;20227;-65
2024/01/02 16:47:02;;;;;;;1.35;1.30;;;9.90;99.90;;;10.26;93.56;96266.00;10480737;28;20239;-67
2024/01/02 16:52:06;;;;;;;1.90;1.80;;;9.90;99.90;;;10.33;92.34;96264.53;10481909;28;20277;-66
2024/01/02 16:57:09;;;;;;;1.88;1.88;;;10.00;99.90;;;10.38;92.44;96250.22;10443421;28;20233;-65
2024/01/02 17:02:18;;;;;;;1.65;1.63;;;9.90;99.90;;;10.40;91.89;96245.16;10438051;28;20232;-67
2024/01/02 17:07:22;;;;;;;1.38;1.38;;;10.00;99.90;;;10.40;92.12;96233.25;10404146;28;20622;-67
2024/01/02 17:12:33;;;;;;;1.70;1.70;;;10.00;99.90;;;10.43;92.03;96232.50;10402031;28;20229;-66
2024/01/02 17:17:38;;;;;;;1.42;1.42;;;10.00;99.90;;;10.44;91.98;96209.53;10449053;28;20220;-66
2024/01/02 17:22:41;;;;;;;1.30;1.30;;;10.10;99.90;;;10.34;94.88;96210.97;10479886;28;20232;-67
2024/01/02 17:27:45;;;;;;;1.38;1.33;;;10.10;99.90;;;10.42;95.46;96192.47;10479924;28;21085;-67
2024/01/02 17:32:51;;;;;;;1.38;1.38;;;10.10;99.90;;;10.19;96.23;96177.25;10473113;28;20222;-66
2024/01/02 17:37:55;;;;;;;2.72;2.53;;;9.90;99.90;;;10.25;95.51;96169.78;10419519;28;20231;-66
2024/01/02 17:42:59;;;;;;;10.05;6.65;;;9.90;99.90;;;10.31;97.21;96162.34;10478820;28;20221;-66
2024/01/02 17:48:07;;;;;;;9.55;6.00;;;10.00;99.90;;;10.22;97.77;96162.03;10465239;28;20223;-66
2024/01/02 17:53:12;;;;;;;1.90;1.80;;;9.90;99.90;;;10.09;99.64;96159.91;10479800;28;20216;-66
2024/01/02 17:58:19;;;;;;;10.13;7.30;;;9.80;99.90;;;10.06;100.00;96153.03;10480765;28;20232;-66
2024/01/02 18:03:37;;;;;;;1.90;1.80;;;9.80;99.90;;;10.14;100.00;96143.06;10466373;28;20947;-66
2024/01/02 18:08:49;;;;;;;145.23;62.33;;;9.80;99.90;;;10.18;100.00;96139.75;10428477;28;20305;-66
2024/01/02 18:14:07;;;;;;;6.10;4.57;;;9.90;99.90;;;10.10;100.00;96123.34;10418836;28;20228;-66
2024/01/02 18:19:34;;;;;;;16.42;12.80;;;9.70;99.90;;;10.12;100.00;96111.50;10492841;28;20684;-66
2024/01/02 18:24:44;;;;;;;2.10;2.00;;;9.70;99.90;;;10.10;100.00;96098.72;10485845;28;20795;-66
2024/01/02 18:30:07;;;;;;;3.53;3.25;;;9.60;99.90;;;10.14;100.00;96097.09;10484434;28;20320;-66
2024/01/02 18:35:18;;;;;;;2.30;2.05;;;9.80;99.90;;;10.00;100.00;96085.63;10447994;28;20708;-66
2024/01/02 18:40:25;;;;;;;1.58;1.58;;;9.60;99.90;;;10.05;100.00;96086.63;10484947;28;20256;-66
2024/01/02 18:45:30;;;;;;;1.67;1.63;;;9.60;99.90;;;10.05;100.00;96071.31;10409394;28;20220;-66
2024/01/02 18:50:39;;;;;;;1.98;1.88;;;9.70;99.90;;;10.00;100.00;96067.75;10444711;28;20220;-66
2024/01/02 18:55:42;;;;;;;1.92;1.83;;;9.60;99.90;;;10.00;100.00;96057.53;10428635;28;20233;-66
2024/01/02 19:01:09;;;;;;;2.03;1.90;;;9.60;99.90;;;10.06;100.00;96052.63;10492301;28;20235;-66
2024/01/02 19:06:26;;;;;;;1.80;1.70;;;9.60;99.90;;;10.07;100.00;96062.88;10460331;28;20651;-66
2024/01/02 19:11:33;;;;;;;1.60;1.52;;;9.60;99.90;;;10.03;100.00;96053.38;10409396;28;20581;-66
2024/01/02 19:16:37;;;;;;;1.50;1.50;;;9.50;99.90;;;10.16;100.00;96057.19;10415932;28;20217;-66
2024/01/02 19:21:43;;;;;;;1.60;1.50;;;9.90;99.90;;;10.14;100.00;96035.84;10445655;28;20243;-66
2024/01/02 19:26:46;;;;;;;1.48;1.38;;;9.80;99.90;;;10.23;100.00;96048.88;10478121;28;20239;-66
2024/01/02 19:31:49;;;;;;;2.38;2.25;;;10.00;99.90;;;10.30;99.01;96053.38;10481580;28;20309;-66
2024/01/02 19:36:54;;;;;;;1.38;1.30;;;10.00;99.90;;;10.41;98.61;96051.09;10485036;28;20234;-66
2024/01/02 19:41:57;;;;;;;1.60;1.58;;;10.10;99.90;;;10.41;97.66;96047.69;10466555;28;20234;-66
2024/01/02 19:47:00;;;;;;;1.52;1.42;;;10.30;99.90;;;10.49;95.89;96057.28;10463612;28;20331;-66
2024/01/02 19:52:06;;;;;;;2.00;1.90;;;10.30;99.90;;;10.66;95.62;96051.78;10466850;28;20251;-67
2024/01/02 19:57:09;;;;;;;1.80;1.70;;;10.50;99.90;;;10.65;94.52;96060.28;10428731;28;20606;-66
2024/01/02 20:02:14;;;;;;;1.77;1.77;;;10.50;99.90;;;10.67;94.69;96058.63;10440996;28;20242;-66
2024/01/02 20:07:29;;;;;;;3.38;3.08;;;10.70;99.90;;;10.68;94.25;96060.38;10406544;28;20217;-66
2024/01/02 20:13:23;;;;;;;2.30;1.90;;;10.50;99.90;;;10.71;93.58;96084.31;10405247;28;20863;-65
2024/01/02 20:18:53;;;;;;;3.00;2.75;;;10.60;99.90;;;10.78;93.67;96072.56;10358346;28;20624;-66
2024/01/02 20:24:05;;;;;;;2.50;2.30;;;10.60;99.90;;;10.78;92.87;96062.34;10404151;28;20235;-66
2024/01/02 20:29:54;;;;;;;2.40;2.30;;;10.60;99.90;;;10.78;93.33;96078.53;10454133;28;20256;-66
2024/01/02 20:35:04;;;;;;;1.90;1.80;;;10.50;99.90;;;10.86;92.72;96088.09;10441968;28;20231;-66
2024/01/02 20:40:42;;;;;;;4.00;3.70;;;10.50;99.90;;;10.84;93.94;96082.94;10446091;28;20723;-67
2024/01/02 20:45:47;;;;;;;3.15;2.95;;;10.40;99.90;;;10.74;95.30;96092.06;10419004;28;20224;-66
2024/01/02 20:50:55;;;;;;;4.13;3.75;;;10.30;99.90;;;10.75;94.81;96108.25;10414996;28;20243;-67
2024/01/02 20:56:00;;;;;;;2.47;2.28;;;10.30;99.90;;;10.79;95.34;96104.97;10456684;28;20230;-66
2024/01/02 21:01:03;;;;;;;1.90;1.80;;;10.20;99.90;;;10.63;95.79;96107.91;10484854;28;20804;-66
2024/01/02 21:06:21;;;;;;;2.92;2.72;;;10.20;99.90;;;10.49;97.13;96108.38;10461567;28;20216;-67
2024/01/02 21:11:25;;;;;;;3.08;2.42;;;10.20;99.90;;;10.42;98.33;96118.41;10460751;28;20231;-66
2024/01/02 21:16:29;;;;;;;4.70;3.80;;;10.00;99.90;;;10.35;98.39;96112.22;10460986;28;20227;-66
2024/01/02 21:21:36;;;;;;;1.75;1.65;;;10.00;99.90;;;10.36;97.09;96091.84;10422774;28;20233;-66
2024/01/02 21:26:40;;;;;;;2.00;1.90;;;10.00;99.90;;;10.41;96.18;96102.19;10412141;28;20768;-67
2024/01/02 21:31:44;;;;;;;2.00;1.90;;;10.20;99.90;;;10.36;96.08;96108.88;10415330;28;20333;-67
2024/01/02 21:36:47;;;;;;;1.55;1.55;;;10.30;99.90;;;10.44;96.00;96097.16;10406385;28;20641;-67